sensor_id;sensor_type;location;lat;lon;timestamp;temperature;humidity
20162;DHT22;51382;53.180;15.414;2022-11-25T00:01:50;2.30;99.90
20162;DHT22;51382;53.180;15.414;2022-11-25T00:17:01;2.70;99.90
20162;DHT22;51382;53.180;15.414;2022-11-25T00:32:12;2.80;99.90
20162;DHT22;51382;53.180;15.414;2022-11-25T00:47:23;2.30;99.90
20162;DHT22;51382;53.180;15.414;2022-11-25T01:02:29;2.30;99.90
20162;DHT22;51382;53.180;15.414;2022-11-25T01:17:40;2.20;99.90
20162;DHT22;51382;53.180;15.414;2022-11-25T01:32:51;2.10;99.90
20162;DHT22;51382;53.180;15.414;2022-11-25T01:48:03;2.20;99.90
20162;DHT22;51382;53.180;15.414;2022-11-25T02:03:23;2.20;99.90
20162;DHT22;51382;53.180;15.414;2022-11-25T02:18:35;2.00;99.90
20162;DHT22;51382;53.180;15.414;2022-11-25T02:33:46;2.10;99.90
20162;DHT22;51382;53.180;15.414;2022-11-25T02:48:58;2.00;99.90
20162;DHT22;51382;53.180;15.414;2022-11-25T03:04:10;1.90;99.90
20162;DHT22;51382;53.180;15.414;2022-11-25T03:19:21;1.90;99.90
20162;DHT22;51382;53.180;15.414;2022-11-25T03:34:32;1.90;99.90
20162;DHT22;51382;53.180;15.414;2022-11-25T03:49:43;1.80;99.90
20162;DHT22;51382;53.180;15.414;2022-11-25T04:04:55;1.80;99.90
20162;DHT22;51382;53.180;15.414;2022-11-25T04:20:07;1.80;99.90
20162;DHT22;51382;53.180;15.414;2022-11-25T04:35:16;1.80;99.90
20162;DHT22;51382;53.180;15.414;2022-11-25T04:50:28;1.90;99.90
20162;DHT22;51382;53.180;15.414;2022-11-25T05:05:44;1.90;99.90
20162;DHT22;51382;53.180;15.414;2022-11-25T05:20:55;1.90;99.90
20162;DHT22;51382;53.180;15.414;2022-11-25T05:36:13;2.10;99.90
20162;DHT22;51382;53.180;15.414;2022-11-25T05:51:25;2.10;99.90
20162;DHT22;51382;53.180;15.414;2022-11-25T06:06:32;2.40;99.90
20162;DHT22;51382;53.180;15.414;2022-11-25T06:21:43;2.20;99.90
20162;DHT22;51382;53.180;15.414;2022-11-25T06:36:55;2.20;99.90
20162;DHT22;51382;53.180;15.414;2022-11-25T06:52:06;2.30;99.90
20162;DHT22;51382;53.180;15.414;2022-11-25T07:07:17;2.30;99.90
20162;DHT22;51382;53.180;15.414;2022-11-25T07:22:22;2.30;99.90
20162;DHT22;51382;53.180;15.414;2022-11-25T07:37:33;2.40;99.90
20162;DHT22;51382;53.180;15.414;2022-11-25T07:52:44;2.60;99.90
20162;DHT22;51382;53.180;15.414;2022-11-25T08:07:55;2.70;99.90
20162;DHT22;51382;53.180;15.414;2022-11-25T08:23:06;2.80;99.90
20162;DHT22;51382;53.180;15.414;2022-11-25T08:38:12;2.90;99.90
20162;DHT22;51382;53.180;15.414;2022-11-25T08:53:25;3.00;99.90
20162;DHT22;51382;53.180;15.414;2022-11-25T09:08:37;3.10;99.90
20162;DHT22;51382;53.180;15.414;2022-11-25T09:23:49;3.40;99.90
20162;DHT22;51382;53.180;15.414;2022-11-25T09:39:02;3.40;99.90
20162;DHT22;51382;53.180;15.414;2022-11-25T09:54:11;3.50;99.90
20162;DHT22;51382;53.180;15.414;2022-11-25T10:09:30;3.60;99.90
20162;DHT22;51382;53.180;15.414;2022-11-25T10:24:43;3.80;99.90
20162;DHT22;51382;53.180;15.414;2022-11-25T10:39:57;4.20;99.90
20162;DHT22;51382;53.180;15.414;2022-11-25T10:55:09;4.10;99.90
20162;DHT22;51382;53.180;15.414;2022-11-25T11:10:22;4.30;99.90
20162;DHT22;51382;53.180;15.414;2022-11-25T11:25:35;4.20;99.90
20162;DHT22;51382;53.180;15.414;2022-11-25T11:40:48;4.40;99.90
20162;DHT22;51382;53.180;15.414;2022-11-25T11:56:05;4.20;99.90
20162;DHT22;51382;53.180;15.414;2022-11-25T12:11:19;4.10;99.90
20162;DHT22;51382;53.180;15.414;2022-11-25T12:26:41;4.20;99.90
20162;DHT22;51382;53.180;15.414;2022-11-25T12:41:58;4.20;99.90
20162;DHT22;51382;53.180;15.414;2022-11-25T12:57:20;4.30;99.90
20162;DHT22;51382;53.180;15.414;2022-11-25T13:12:39;4.40;99.90
20162;DHT22;51382;53.180;15.414;2022-11-25T13:28:00;4.10;99.90
20162;DHT22;51382;53.180;15.414;2022-11-25T13:43:20;3.90;99.90
20162;DHT22;51382;53.180;15.414;2022-11-25T13:58:31;3.70;99.90
20162;DHT22;51382;53.180;15.414;2022-11-25T14:13:56;3.60;99.90
20162;DHT22;51382;53.180;15.414;2022-11-25T14:29:18;3.50;99.90
20162;DHT22;51382;53.180;15.414;2022-11-25T14:44:33;3.40;99.90
20162;DHT22;51382;53.180;15.414;2022-11-25T14:59:44;3.50;99.90
20162;DHT22;51382;53.180;15.414;2022-11-25T15:14:54;3.40;99.90
20162;DHT22;51382;53.180;15.414;2022-11-25T15:30:18;3.30;99.90
20162;DHT22;51382;53.180;15.414;2022-11-25T15:45:36;3.20;99.90
20162;DHT22;51382;53.180;15.414;2022-11-25T16:01:02;3.20;99.90
20162;DHT22;51382;53.180;15.414;2022-11-25T16:16:20;3.20;99.90
20162;DHT22;51382;53.180;15.414;2022-11-25T16:31:32;3.10;99.90
20162;DHT22;51382;53.180;15.414;2022-11-25T16:46:45;3.00;99.90
20162;DHT22;51382;53.180;15.414;2022-11-25T17:01:57;3.00;99.90
20162;DHT22;51382;53.180;15.414;2022-11-25T17:17:09;3.10;99.90
20162;DHT22;51382;53.180;15.414;2022-11-25T17:32:29;3.10;99.90
20162;DHT22;51382;53.180;15.414;2022-11-25T17:47:40;3.20;99.90
20162;DHT22;51382;53.180;15.414;2022-11-25T18:02:47;3.20;99.90
20162;DHT22;51382;53.180;15.414;2022-11-25T18:18:00;3.10;99.90
20162;DHT22;51382;53.180;15.414;2022-11-25T18:33:12;3.10;99.90
20162;DHT22;51382;53.180;15.414;2022-11-25T18:48:27;3.10;99.90
20162;DHT22;51382;53.180;15.414;2022-11-25T19:03:41;3.10;99.90
20162;DHT22;51382;53.180;15.414;2022-11-25T19:18:52;3.20;99.90
20162;DHT22;51382;53.180;15.414;2022-11-25T19:34:03;3.20;99.90
20162;DHT22;51382;53.180;15.414;2022-11-25T19:49:16;3.20;99.90
20162;DHT22;51382;53.180;15.414;2022-11-25T20:04:32;3.10;99.90
20162;DHT22;51382;53.180;15.414;2022-11-25T20:19:46;3.00;99.90
20162;DHT22;51382;53.180;15.414;2022-11-25T20:35:07;2.90;99.90
20162;DHT22;51382;53.180;15.414;2022-11-25T20:50:23;3.00;99.90
20162;DHT22;51382;53.180;15.414;2022-11-25T21:05:32;2.90;99.90
20162;DHT22;51382;53.180;15.414;2022-11-25T21:20:40;2.90;99.90
20162;DHT22;51382;53.180;15.414;2022-11-25T21:35:58;2.90;99.90
20162;DHT22;51382;53.180;15.414;2022-11-25T21:51:11;2.90;99.90
20162;DHT22;51382;53.180;15.414;2022-11-25T22:06:30;2.90;99.90
20162;DHT22;51382;53.180;15.414;2022-11-25T22:21:41;3.10;99.90
20162;DHT22;51382;53.180;15.414;2022-11-25T22:36:56;3.00;99.90
20162;DHT22;51382;53.180;15.414;2022-11-25T22:52:02;3.10;99.90
20162;DHT22;51382;53.180;15.414;2022-11-25T23:07:17;3.10;99.90
20162;DHT22;51382;53.180;15.414;2022-11-25T23:22:31;3.10;99.90
20162;DHT22;51382;53.180;15.414;2022-11-25T23:37:42;3.20;99.90
20162;DHT22;51382;53.180;15.414;2022-11-25T23:52:56;3.20;99.90
